Aviation Digital Data Service (ADDS)

Output produced by METARs form (0038 UTC 05 July 2022)
found at http://www.aviationweather.gov/metar/data/
 
KBOS 042320Z 0500/0606 22005KT P6SM FEW080 
     FM051400 19005KT P6SM BKN100 
     FM052000 21012G21KT P6SM VCSH BKN030
       
KLGA 042334Z 0500/0606 18006KT P6SM FEW080 BKN250 
     FM051500 21010KT P6SM BKN080 
     FM051800 18013G19KT P6SM BKN050 
     PROB30 0518/0521 -SHRA 
     FM052100 19015G22KT P6SM BKN040 
     PROB30 0522/0523 -SHRA 
     FM052300 20016G25KT 6SM -SHRA BR SCT020 BKN040 
     FM060300 20014G20KT P6SM VCSH SCT020 BKN035
       
KEWR 042334Z 0500/0606 24006KT P6SM FEW070 BKN250 
     FM051500 20010KT P6SM BKN080 
     FM051800 20013G20KT P6SM BKN050 
     PROB30 0518/0523 -SHRA 
     FM052300 20014G22KT 6SM -SHRA BR SCT020 BKN040 
     FM060300 20011G19KT P6SM VCSH SCT020 BKN035
       
KJFK 042334Z 0500/0606 18011KT P6SM FEW080 BKN250 
     FM050100 21006KT P6SM FEW080 BKN250 
     FM051500 19010KT P6SM BKN080 
     FM051800 18013G20KT P6SM SCT040 BKN060 
     PROB30 0518/0520 -SHRA 
     FM052000 19016G22KT P6SM BKN040 
     PROB30 0520/0523 -SHRA 
     FM052300 20017G24KT 6SM -SHRA BR SCT020 BKN040 
     FM060300 20016G23KT P6SM VCSH SCT020 BKN035
       
KPHL 042348Z 0500/0606 VRB03KT P6SM SCT150 BKN250 
     FM051600 21010G18KT P6SM FEW130 SCT150 
     FM052000 20012G22KT P6SM SCT050 OVC060 
     FM052200 20010G19KT P6SM BKN050 
     FM060100 21009KT P6SM SCT080 BKN100 
     FM060500 22007KT P6SM FEW050 SCT130 WS020/24035KT
       
KIAD 042331Z 0500/0606 29005KT P6SM FEW090 SCT200 
     FM050300 VRB03KT P6SM SCT200 
     FM051200 19005KT P6SM SCT200 
     FM051700 20010G18KT 6SM SHRA SCT040 BKN150 
     FM052200 19009KT P6SM SCT040 BKN150 
     FM060300 22004KT P6SM FEW060 SCT200
       
KBWI 042331Z 0500/0606 16007KT P6SM FEW080 BKN250 
     FM050300 00000KT P6SM FEW150 FEW250 
     FM051000 19003KT P6SM FEW200 FEW250 
     FM051400 20007KT P6SM SCT050 BKN200 
     FM051800 19011G19KT 6SM SHRA SCT050 BKN150 
     FM052300 19008KT P6SM FEW050 SCT130 
     FM060200 22005KT P6SM BKN150 BKN250
       
KDCA 042331Z 0500/0606 17007KT P6SM FEW050 BKN250 
     FM050800 18003KT P6SM SCT250 
     FM051200 19006KT P6SM BKN200 
     FM051400 19009G18KT P6SM FEW080 SCT200 
     FM051700 20010G21KT 6SM SHRA SCT040 BKN150 
     FM052200 20007KT P6SM FEW040 SCT150
       
KCLT 042341Z 0500/0606 13005KT P6SM SCT070 SCT110 
     FM050900 18003KT 6SM BR SCT006 BKN011 
     TEMPO 0509/0513 5SM BR BKN006 
     FM051300 20004KT P6SM SCT023 
     FM051900 21006KT P6SM VCSH SCT045 
     PROB30 0519/0524 3SM TSRA BKN045CB 
     FM060000 21004KT P6SM SCT070
       
KATL 042354Z 0500/0606 22006KT P6SM VCSH SCT040 BKN070 BKN200 
     TEMPO 0500/0502 VRB10G20KT 4SM TSRA BR BKN030CB 
     FM050200 12005KT P6SM FEW070 SCT120 
     FM050900 11005KT 5SM BR BKN010 
     FM051400 19005KT P6SM SCT025 
     FM051700 20005KT P6SM VCSH BKN040 BKN250 
     PROB30 0518/0524 VRB10G20KT 4SM TSRA BR BKN025CB 
     FM060100 21005KT P6SM FEW070 SCT120
       
KMCO 042338Z 0500/0606 12005KT P6SM FEW030 FEW250 
     FM051400 11005KT P6SM SCT035 
     FM051800 09010KT P6SM VCTS SCT045CB SCT250 
     FM060000 12005KT P6SM FEW060 FEW250
       
KTPA 042328Z 0500/0606 26007KT P6SM VCTS SCT035CB BKN200 
     FM050200 VRB04KT P6SM SCT025 BKN150 
     FM051900 26007KT P6SM VCTS BKN040CB 
     FM060000 02005KT P6SM SCT030 BKN150 
     FM060300 12005KT P6SM SCT120
       
KFLL 042320Z 0500/0606 09012KT P6SM SCT030 BKN070 
     FM050500 10007KT P6SM SCT030 
     FM051200 10008KT P6SM VCSH SCT030 BKN050 
     FM051500 10010KT P6SM VCTS SCT030CB BKN050 
     FM051900 10012KT P6SM VCSH SCT030 BKN050
       
KMIA 042320Z 0500/0606 10010KT P6SM SCT025 BKN040 BKN250 
     FM050500 10006KT P6SM SCT030 
     FM051200 10008KT P6SM VCSH SCT030 BKN050 
     FM051500 10010KT P6SM VCTS SCT030CB BKN050 
     FM051900 10012KT P6SM VCSH SCT030 BKN050
       
KDTW 042337Z 0500/0606 18008KT P6SM OVC200 
     FM050600 16005KT 6SM -RA OVC080 
     TEMPO 0507/0510 4SM -TSRA BKN050CB 
     FM051200 24010KT P6SM BKN035 
     FM051700 28012KT P6SM SCT050 
     FM060200 09006KT P6SM SCT080 BKN250
       
KMSP 042339Z 0500/0606 VRB05KT P6SM FEW025 BKN040 
     FM050200 VRB03KT P6SM SKC 
     FM050600 00000KT 4SM BR SCT035 
     FM050900 00000KT 2SM BR SCT005 BKN022 
     TEMPO 0509/0513 1/2SM FG VV005 
     FM051300 VRB03KT 6SM BR BKN015 
     FM051600 03005KT P6SM SCT045
       
KORD 042330Z 0500/0606 16009KT P6SM SCT025 BKN150 
     FM050200 20011KT P6SM SCT035 BKN150 
     TEMPO 0504/0506 35020G35KT 1SM +TSRA BKN015 OVC035CB 
     FM050600 22011KT P6SM SCT035 BKN120 WS020/25040KT 
     FM051100 25013KT P6SM SCT250 
     FM051500 27010KT P6SM SCT040 
     FM052000 06009KT P6SM SCT050 BKN250 
     PROB30 0600/0604 4SM -TSRA BKN050CB
       
KMDW 042330Z 0500/0606 16009KT P6SM VCSH SCT025 BKN150 
     FM050200 20011KT P6SM SCT035 BKN150 
     TEMPO 0504/0506 35020G35KT 1SM +TSRA BKN015 OVC035CB 
     FM050600 22011KT P6SM SCT035 BKN120 WS020/25040KT 
     FM051100 25013KT P6SM SCT250 
     FM051500 27010KT P6SM SCT040 
     FM052000 06009KT P6SM SCT050 BKN250 
     PROB30 0600/0604 4SM -TSRA BKN050CB
       
KMEM 042336Z 0500/0606 21007KT P6SM SCT050 
     FM050200 18006KT P6SM FEW050 FEW250 
     FM051400 23006KT P6SM SCT080 
     FM060000 18006KT P6SM FEW250
       
KDFW 042320Z 0500/0606 17014KT P6SM SKC
       
KIAH 042321Z 0500/0606 16012KT P6SM FEW050 
     FM050300 17005KT P6SM FEW250 
     FM051500 18007KT P6SM SCT035 
     FM052100 14012KT P6SM SCT050 
     FM060300 VRB05KT P6SM SCT250
       
KDEN 042340Z 0500/0606 31012KT P6SM VCSH SCT090 BKN150 
     FM050100 02012KT P6SM VCSH SCT100 BKN150 
     FM050300 14010KT P6SM FEW100 BKN220 
     FM050500 22010KT P6SM FEW110 SCT220 
     FM051400 VRB06KT P6SM FEW100 BKN220 
     FM051700 02007KT P6SM FEW100 BKN220 
     FM052200 11007KT P6SM VCTS SCT100CB BKN220 
     FM060300 16009KT P6SM FEW120 BKN200
       
KSLC 042340Z 0500/0606 20015G25KT P6SM SKC 
     FM050300 15010KT P6SM SKC 
     FM051400 19011G22KT P6SM SKC
       
KSEA 042329Z 0500/0606 23006KT P6SM SCT035 BKN100 
     FM050200 28004KT P6SM VCSH BKN070 
     FM050600 35003KT P6SM SCT040 BKN100 
     FM052000 31005KT P6SM BKN250
       
KSFO 042340Z 0500/0606 30017KT P6SM FEW035 BKN100 
     FM050400 25006KT P6SM BKN014 BKN025 
     FM050900 VRB04KT P6SM OVC012 
     FM051600 VRB05KT P6SM SCT020 
     FM052000 25012KT P6SM BKN050 
     FM060400 26010KT P6SM BKN030
       
KLAX 042333Z 0500/0606 24013KT P6SM SKC 
     FM050400 25008KT P6SM SCT015 
     FM050600 13005KT P6SM OVC015 
     FM051500 13005KT P6SM OVC020 
     FM052000 26013KT P6SM FEW020 SCT200 
     FM060500 25006KT P6SM BKN015
       
KSAN 042333Z 0500/0606 21009KT P6SM FEW020 
     FM050200 VRB05KT P6SM SCT020 
     TEMPO 0502/0504 BKN020 
     FM050400 VRB04KT P6SM OVC021 
     FM051700 VRB04KT P6SM SCT025 
     FM051900 26010KT P6SM SCT020 
     TEMPO 0522/0602 BKN018 
     FM060200 VRB05KT P6SM BKN018
       
KLAS 042320Z 0500/0606 21014G22KT P6SM SKC 
     FM050300 22008KT P6SM SKC 
     FM051500 VRB05KT P6SM SKC 
     FM051700 15010KT P6SM SKC 
     FM052100 18012G20KT P6SM SKC
       
KPHX 042320Z 0500/0606 20008G17KT P6SM SCT100 SCT150 BKN250 
     FM050200 VRB06KT P6SM SCT100 BKN150 BKN250 
     TEMPO 0502/0504 16008G16KT BKN100 
     FM051000 12005KT P6SM VCSH BKN100 BKN150 
     FM051600 VRB05KT P6SM FEW100 SCT150 SCT250 
     FM052000 18008G16KT P6SM FEW250
       
KSDF 042331Z 0500/0606 VRB04KT P6SM SCT050 
     FM050100 VRB04KT 5SM FU FEW050 
     TEMPO 0501/0503 2SM FU FEW050 
     FM050400 19004KT P6SM SCT250 
     FM051400 24007KT P6SM FEW050 SCT100 
     PROB30 0518/0523 4SM TSRA BR BKN050CB 
     FM060000 VRB04KT P6SM SCT150
       
KIND 042320Z 0500/0606 20006KT P6SM FEW050 
     FM050100 20006KT P6SM SCT200
       
KCVG 042343Z 0500/0606 19006KT P6SM SCT250 
     FM050300 19004KT P6SM FEW060 BKN200 
     FM051000 21004KT P6SM BKN100 
     FM051800 26009KT P6SM SCT045 
     FM060200 23004KT P6SM BKN150